Time;durP1;ratioP1;P1;durP2;ratioP2;P2;SDS_P1;SDS_P2;PMS_P1;PMS_P2;Temp;Humidity;BMP_temperature;BMP_pressure;BME280_temperature;BME280_humidity;BME280_pressure;Samples;Min_cycle;Max_cycle;Signal;HPM_P1;HPM_P2
2023/05/07 00:02:27;;;;;;;1.77;1.67;;;11.60;76.70;;;;;;5007864;28;20573;-63
2023/05/07 00:04:55;;;;;;;2.93;1.93;;;11.70;76.50;;;;;;5006402;28;20836;-63
2023/05/07 00:07:22;;;;;;;2.97;1.80;;;11.70;76.20;;;;;;5006747;28;20209;-64
2023/05/07 00:09:49;;;;;;;2.17;1.93;;;11.70;76.00;;;;;;5005373;28;20269;-63
2023/05/07 00:12:16;;;;;;;2.33;2.13;;;11.70;75.90;;;;;;5007992;28;20230;-63
2023/05/07 00:14:45;;;;;;;2.03;1.90;;;11.70;75.70;;;;;;5009728;28;20201;-63
2023/05/07 00:17:12;;;;;;;4.13;1.93;;;11.70;75.70;;;;;;5007113;28;20702;-63
2023/05/07 00:19:41;;;;;;;2.13;1.90;;;11.70;75.70;;;;;;5005046;28;20551;-64
2023/05/07 00:22:09;;;;;;;2.07;1.80;;;11.70;75.60;;;;;;5006366;28;21995;-64
2023/05/07 00:24:36;;;;;;;2.03;1.40;;;11.70;75.60;;;;;;4990388;28;20218;-64
2023/05/07 00:27:03;;;;;;;1.90;1.73;;;11.70;75.60;;;;;;5008280;28;20210;-63
2023/05/07 00:29:30;;;;;;;1.50;1.30;;;11.60;75.50;;;;;;5007591;28;20205;-63
2023/05/07 00:31:57;;;;;;;1.97;1.70;;;11.60;75.60;;;;;;5010773;28;20202;-64
2023/05/07 00:34:24;;;;;;;1.80;1.70;;;11.60;75.70;;;;;;5014120;28;20205;-63
2023/05/07 00:36:53;;;;;;;1.80;1.70;;;11.60;75.80;;;;;;5012783;28;20206;-63
2023/05/07 00:39:20;;;;;;;1.80;1.70;;;11.60;75.70;;;;;;5012900;28;20222;-63
2023/05/07 00:41:47;;;;;;;1.90;1.70;;;11.60;75.80;;;;;;5013019;28;20660;-63
2023/05/07 00:44:14;;;;;;;1.73;1.63;;;11.60;75.70;;;;;;5001318;28;20202;-63
2023/05/07 00:46:42;;;;;;;2.03;1.90;;;11.60;75.70;;;;;;5015422;28;20226;-63
2023/05/07 00:49:09;;;;;;;2.17;1.77;;;11.60;75.70;;;;;;5001052;28;20305;-64
2023/05/07 00:51:36;;;;;;;4.43;2.20;;;11.60;75.70;;;;;;5008274;28;20617;-63
2023/05/07 00:54:05;;;;;;;2.30;2.07;;;11.60;75.60;;;;;;4993722;28;20202;-64
2023/05/07 00:56:33;;;;;;;3.10;1.83;;;11.50;75.40;;;;;;5014751;28;20210;-64
2023/05/07 00:59:01;;;;;;;1.80;1.70;;;11.50;75.50;;;;;;5014053;28;20201;-63
2023/05/07 01:01:28;;;;;;;1.93;1.80;;;11.50;75.50;;;;;;5014299;28;20887;-63
2023/05/07 01:03:56;;;;;;;1.93;1.70;;;11.70;75.80;;;;;;4998056;28;20234;-63
2023/05/07 01:06:25;;;;;;;1.60;1.50;;;11.40;75.50;;;;;;5013603;28;20205;-63
2023/05/07 01:08:55;;;;;;;1.80;1.70;;;11.40;75.50;;;;;;5013843;28;20278;-64
2023/05/07 01:11:25;;;;;;;1.80;1.70;;;11.40;75.70;;;;;;5014503;28;20191;-63
2023/05/07 01:13:52;;;;;;;2.20;1.90;;;11.40;75.40;;;;;;5012956;28;20207;-64
2023/05/07 01:16:21;;;;;;;2.47;1.83;;;11.40;75.20;;;;;;5001357;28;20210;-63
2023/05/07 01:18:48;;;;;;;2.13;1.80;;;11.40;75.10;;;;;;4999641;28;20392;-64
2023/05/07 01:21:17;;;;;;;2.20;1.80;;;11.40;75.00;;;;;;5013785;28;20211;-64
2023/05/07 01:23:48;;;;;;;2.17;1.80;;;11.40;75.00;;;;;;5002088;28;20217;-64
2023/05/07 01:26:16;;;;;;;2.20;2.00;;;11.40;74.90;;;;;;5001629;28;20586;-63
2023/05/07 01:28:46;;;;;;;2.17;1.50;;;11.40;74.80;;;;;;4994624;28;20744;-63
2023/05/07 01:31:14;;;;;;;2.17;1.83;;;11.40;74.80;;;;;;5014030;28;20194;-64
2023/05/07 01:33:43;;;;;;;1.93;1.70;;;11.30;74.70;;;;;;5012780;28;20193;-62
2023/05/07 01:36:11;;;;;;;3.10;1.90;;;11.30;74.70;;;;;;5010079;28;20239;-63
2023/05/07 01:38:40;;;;;;;1.43;1.33;;;11.30;74.70;;;;;;5014135;28;20194;-64
2023/05/07 01:41:08;;;;;;;1.77;1.67;;;11.30;74.70;;;;;;5012930;28;20242;-63
2023/05/07 01:43:36;;;;;;;2.50;1.70;;;11.30;74.80;;;;;;4997623;28;20209;-63
2023/05/07 01:46:04;;;;;;;1.77;1.60;;;11.30;74.80;;;;;;4997716;28;20210;-63
2023/05/07 01:48:33;;;;;;;1.60;1.50;;;11.30;74.80;;;;;;5010140;28;20203;-64
2023/05/07 01:51:01;;;;;;;1.60;1.50;;;11.30;74.70;;;;;;5009464;28;20202;-64
2023/05/07 01:53:28;;;;;;;2.60;1.40;;;11.30;74.70;;;;;;5011586;28;20558;-64
2023/05/07 01:55:55;;;;;;;1.90;1.50;;;11.30;74.70;;;;;;5009287;28;20203;-64
2023/05/07 01:58:25;;;;;;;1.60;1.50;;;11.30;74.60;;;;;;4991552;28;20198;-63
2023/05/07 02:00:52;;;;;;;1.87;1.50;;;11.30;75.00;;;;;;5010862;28;20223;-64
2023/05/07 02:03:20;;;;;;;1.63;1.53;;;11.30;74.60;;;;;;4994063;28;20313;-64
2023/05/07 02:05:56;;;;;;;1.67;1.57;;;11.30;74.50;;;;;;4993836;28;20646;-63
2023/05/07 02:08:33;;;;;;;1.50;1.40;;;11.40;74.70;;;;;;4990865;28;20582;-63
2023/05/07 02:11:01;;;;;;;2.03;1.73;;;11.30;74.50;;;;;;4997929;28;20277;-65
2023/05/07 02:13:31;;;;;;;1.93;1.60;;;11.30;74.60;;;;;;4995922;28;20269;-64
2023/05/07 02:15:58;;;;;;;2.17;1.60;;;11.10;74.40;;;;;;5008573;28;20271;-63
2023/05/07 02:18:27;;;;;;;1.50;1.40;;;11.20;74.60;;;;;;4989981;28;20206;-64
2023/05/07 02:20:55;;;;;;;1.50;1.30;;;11.20;74.60;;;;;;4995374;28;20666;-63
2023/05/07 02:23:22;;;;;;;1.40;1.30;;;11.20;74.60;;;;;;4998502;28;20238;-64
2023/05/07 02:25:50;;;;;;;1.67;1.57;;;11.10;74.70;;;;;;4997584;28;22230;-63
2023/05/07 02:28:17;;;;;;;2.00;1.70;;;11.20;74.80;;;;;;4994507;28;20533;-63
2023/05/07 02:30:52;;;;;;;1.70;1.60;;;11.20;74.90;;;;;;5010163;28;20277;-63
2023/05/07 02:33:20;;;;;;;2.90;1.50;;;11.10;74.90;;;;;;5007388;28;20301;-64
2023/05/07 02:35:47;;;;;;;2.73;1.30;;;11.10;74.90;;;;;;4996017;28;20199;-64
2023/05/07 02:38:16;;;;;;;1.50;1.40;;;11.10;74.90;;;;;;5007532;28;20873;-64
2023/05/07 02:40:44;;;;;;;3.07;1.40;;;11.10;75.00;;;;;;4998046;28;20581;-64
2023/05/07 02:43:11;;;;;;;2.00;1.80;;;11.10;75.00;;;;;;5009734;28;20193;-65
2023/05/07 02:45:43;;;;;;;1.80;1.50;;;11.10;75.00;;;;;;4996911;28;20293;-65
2023/05/07 02:48:11;;;;;;;3.17;1.87;;;11.10;75.00;;;;;;4990011;28;20214;-64
2023/05/07 02:50:39;;;;;;;1.80;1.60;;;11.00;75.00;;;;;;4995409;28;20260;-64
2023/05/07 02:53:06;;;;;;;3.07;1.93;;;11.00;75.00;;;;;;5008887;28;20701;-63
2023/05/07 02:55:33;;;;;;;1.83;1.60;;;11.00;75.10;;;;;;5008507;28;20435;-63
2023/05/07 02:58:00;;;;;;;2.20;2.00;;;11.00;75.00;;;;;;4996805;28;20627;-63
2023/05/07 03:00:28;;;;;;;1.60;1.50;;;11.00;75.10;;;;;;4990380;28;20218;-63
2023/05/07 03:03:10;;;;;;;2.00;1.80;;;10.90;75.10;;;;;;4995692;28;20217;-63
2023/05/07 03:05:38;;;;;;;2.77;1.97;;;10.90;75.10;;;;;;4995192;28;20201;-63
2023/05/07 03:08:05;;;;;;;2.07;1.83;;;10.90;75.30;;;;;;5009769;28;20699;-63
2023/05/07 03:10:32;;;;;;;1.93;1.80;;;10.90;75.30;;;;;;5007890;28;20617;-63
2023/05/07 03:13:00;;;;;;;2.27;2.07;;;10.80;75.20;;;;;;5008528;28;20287;-63
2023/05/07 03:15:27;;;;;;;2.43;1.83;;;10.80;75.30;;;;;;4993325;28;20209;-63
2023/05/07 03:17:54;;;;;;;2.27;1.77;;;10.80;75.30;;;;;;4996937;28;20207;-64
2023/05/07 03:20:23;;;;;;;2.30;1.50;;;10.80;75.40;;;;;;5005390;28;20510;-63
2023/05/07 03:22:50;;;;;;;4.87;2.00;;;10.70;75.30;;;;;;5007840;28;20839;-64
2023/05/07 03:25:17;;;;;;;3.37;1.73;;;10.70;75.40;;;;;;4995128;28;20304;-64
2023/05/07 03:27:44;;;;;;;2.03;1.43;;;10.70;75.50;;;;;;5008867;28;20735;-63
2023/05/07 03:30:13;;;;;;;1.97;1.77;;;10.70;75.50;;;;;;5005621;28;20191;-63
2023/05/07 03:32:40;;;;;;;2.07;1.87;;;10.70;75.50;;;;;;5009970;28;20654;-62
2023/05/07 03:35:10;;;;;;;2.03;1.83;;;10.70;75.60;;;;;;4995275;28;20206;-62
2023/05/07 03:37:39;;;;;;;1.90;1.77;;;10.70;75.60;;;;;;4990581;28;20202;-64
2023/05/07 03:40:09;;;;;;;2.10;1.90;;;10.70;75.60;;;;;;4991955;28;20202;-64
2023/05/07 03:42:44;;;;;;;1.77;1.67;;;10.70;75.50;;;;;;5008911;28;20244;-65
2023/05/07 03:45:12;;;;;;;2.17;1.70;;;10.70;75.50;;;;;;4997831;28;20213;-64
2023/05/07 03:47:43;;;;;;;1.50;1.40;;;10.70;75.60;;;;;;4994809;28;20195;-64
2023/05/07 03:50:13;;;;;;;2.20;1.73;;;10.70;75.60;;;;;;4995004;28;20350;-64
2023/05/07 03:52:41;;;;;;;2.30;1.83;;;10.70;75.60;;;;;;4987788;28;20206;-63
2023/05/07 03:55:11;;;;;;;4.77;2.20;;;10.70;75.60;;;;;;4993376;28;20422;-63
2023/05/07 03:57:40;;;;;;;2.10;1.87;;;10.70;75.70;;;;;;4994272;28;20218;-63
2023/05/07 04:00:09;;;;;;;2.07;1.80;;;10.70;75.50;;;;;;4994333;28;20203;-63
2023/05/07 04:02:47;;;;;;;3.50;1.53;;;10.70;75.60;;;;;;5005586;28;20206;-64
2023/05/07 04:05:17;;;;;;;2.10;1.90;;;10.80;75.60;;;;;;4987252;28;20892;-63
2023/05/07 04:07:48;;;;;;;2.03;1.80;;;10.80;75.50;;;;;;4991167;28;20745;-63
2023/05/07 04:10:20;;;;;;;4.17;2.07;;;10.70;75.40;;;;;;4988251;28;20206;-63
2023/05/07 04:12:49;;;;;;;2.10;2.00;;;10.70;75.50;;;;;;4989303;28;20519;-64
2023/05/07 04:15:20;;;;;;;2.13;1.80;;;10.70;75.60;;;;;;4992627;28;20208;-64
2023/05/07 04:17:48;;;;;;;4.50;2.23;;;10.80;75.60;;;;;;4990040;28;20360;-64
2023/05/07 04:20:18;;;;;;;2.20;2.00;;;10.80;75.60;;;;;;4984402;28;20207;-64
2023/05/07 04:22:51;;;;;;;2.50;2.30;;;10.80;75.50;;;;;;4992579;28;20215;-64
2023/05/07 04:25:19;;;;;;;2.57;2.03;;;10.90;75.60;;;;;;4992115;28;20196;-64
2023/05/07 04:27:46;;;;;;;2.57;2.03;;;10.90;75.50;;;;;;4988228;28;20280;-62
2023/05/07 04:30:14;;;;;;;4.03;2.63;;;11.00;75.50;;;;;;4992152;28;20570;-63
2023/05/07 04:32:42;;;;;;;3.50;2.43;;;10.90;75.50;;;;;;5003588;28;20210;-63
2023/05/07 04:35:09;;;;;;;3.50;2.43;;;10.90;75.50;;;;;;4990179;28;20206;-63
2023/05/07 04:37:37;;;;;;;3.53;2.00;;;11.00;75.60;;;;;;4991760;28;20208;-63
2023/05/07 04:40:07;;;;;;;2.97;2.33;;;11.00;75.50;;;;;;4989553;28;20727;-63
2023/05/07 04:42:35;;;;;;;3.50;2.20;;;11.10;75.50;;;;;;4987778;28;20789;-63
2023/05/07 04:45:04;;;;;;;2.17;1.80;;;11.10;75.40;;;;;;4992907;28;20204;-63
2023/05/07 04:47:33;;;;;;;2.03;1.83;;;11.20;75.30;;;;;;4991906;28;20193;-63
2023/05/07 04:50:02;;;;;;;2.40;1.80;;;11.20;75.40;;;;;;4990797;28;20277;-64
2023/05/07 04:52:29;;;;;;;1.80;1.70;;;11.30;75.40;;;;;;4987422;28;20671;-64
2023/05/07 04:54:57;;;;;;;1.73;1.60;;;11.40;75.40;;;;;;5000267;28;20203;-63
2023/05/07 04:57:26;;;;;;;1.67;1.20;;;11.50;75.10;;;;;;4991583;28;20207;-64
2023/05/07 04:59:53;;;;;;;2.30;2.07;;;10.40;73.90;;;;;;4988840;28;20200;-64
2023/05/07 05:02:21;;;;;;;1.97;1.83;;;11.60;74.70;;;;;;4990803;28;20217;-64
2023/05/07 05:04:48;;;;;;;2.67;1.70;;;11.60;74.50;;;;;;4999482;28;20230;-64
2023/05/07 05:07:16;;;;;;;2.87;1.87;;;11.70;74.40;;;;;;5006194;28;20206;-64
2023/05/07 05:09:43;;;;;;;1.67;1.57;;;11.70;74.00;;;;;;4995350;28;20603;-64
2023/05/07 05:12:11;;;;;;;3.07;1.60;;;11.80;73.80;;;;;;4989958;28;20572;-64
2023/05/07 05:14:40;;;;;;;2.20;1.97;;;11.80;73.60;;;;;;4992470;28;20206;-64
2023/05/07 05:17:08;;;;;;;1.87;1.63;;;11.90;73.30;;;;;;4997162;28;20215;-64
2023/05/07 05:19:37;;;;;;;2.60;1.50;;;11.90;73.20;;;;;;5009294;28;20465;-64
2023/05/07 05:22:04;;;;;;;2.10;1.90;;;12.00;73.10;;;;;;5009667;28;20216;-63
2023/05/07 05:24:32;;;;;;;3.47;2.10;;;12.00;73.00;;;;;;4999538;28;20210;-64
2023/05/07 05:27:01;;;;;;;1.67;1.57;;;12.00;72.40;;;;;;5010174;28;20861;-63
2023/05/07 05:29:31;;;;;;;1.67;1.57;;;11.90;71.00;;;;;;4991561;28;20204;-64
2023/05/07 05:32:00;;;;;;;2.10;1.90;;;11.90;70.10;;;;;;4997439;28;20199;-63
2023/05/07 05:34:28;;;;;;;3.50;1.77;;;12.00;69.60;;;;;;4996112;28;20201;-64
2023/05/07 05:36:56;;;;;;;1.80;1.50;;;12.00;68.50;;;;;;5007064;28;20203;-64
2023/05/07 05:39:23;;;;;;;1.70;1.60;;;12.00;67.90;;;;;;5011291;28;20205;-65
2023/05/07 05:41:51;;;;;;;1.87;1.50;;;12.00;66.90;;;;;;4997158;28;20337;-64
2023/05/07 05:44:18;;;;;;;2.23;1.40;;;12.10;66.20;;;;;;4996743;28;20197;-63
2023/05/07 05:46:46;;;;;;;1.30;1.20;;;12.10;66.00;;;;;;5009539;28;20749;-63
2023/05/07 05:49:15;;;;;;;1.10;1.00;;;12.10;66.00;;;;;;5010034;28;20801;-62
2023/05/07 05:51:43;;;;;;;1.60;1.47;;;12.20;65.90;;;;;;4993726;28;20286;-63
2023/05/07 05:54:10;;;;;;;1.50;1.40;;;12.30;65.80;;;;;;5009320;28;20217;-64
2023/05/07 05:56:38;;;;;;;2.37;1.80;;;12.30;65.60;;;;;;4998683;28;20210;-64
2023/05/07 05:59:05;;;;;;;1.27;1.13;;;12.40;65.20;;;;;;5008531;28;20195;-64
2023/05/07 06:01:33;;;;;;;1.83;1.20;;;12.40;65.90;;;;;;4998893;28;20215;-64
2023/05/07 06:04:02;;;;;;;2.13;1.53;;;12.50;64.70;;;;;;4990001;28;20238;-64
2023/05/07 06:06:32;;;;;;;3.40;1.50;;;12.60;64.40;;;;;;5009818;28;20199;-63
2023/05/07 06:08:59;;;;;;;1.90;1.70;;;12.60;64.00;;;;;;5006725;28;20213;-63
2023/05/07 06:11:35;;;;;;;2.90;2.03;;;12.70;63.00;;;;;;4997635;28;20210;-63
2023/05/07 06:14:02;;;;;;;1.63;1.53;;;12.70;62.20;;;;;;5010220;28;20203;-63
2023/05/07 06:16:30;;;;;;;2.63;1.63;;;12.80;62.00;;;;;;4998434;28;20200;-64
2023/05/07 06:18:58;;;;;;;4.77;2.97;;;12.80;61.30;;;;;;5007757;28;20210;-64
2023/05/07 06:21:25;;;;;;;3.97;2.97;;;12.80;60.30;;;;;;4996922;28;20268;-64
2023/05/07 06:23:54;;;;;;;3.83;2.57;;;12.80;60.30;;;;;;5012025;28;20514;-64
2023/05/07 06:26:22;;;;;;;2.03;1.80;;;12.90;60.00;;;;;;4995161;28;20614;-63
2023/05/07 06:28:49;;;;;;;1.50;1.40;;;12.90;60.10;;;;;;5006507;28;20725;-65
2023/05/07 06:31:21;;;;;;;1.23;1.07;;;12.90;60.30;;;;;;4997163;28;20659;-64
2023/05/07 06:33:55;;;;;;;1.20;1.10;;;12.90;60.30;;;;;;5005741;28;20203;-64
2023/05/07 06:36:22;;;;;;;3.03;1.40;;;13.00;60.40;;;;;;4994929;28;20231;-63
2023/05/07 06:38:52;;;;;;;4.47;2.63;;;13.00;60.00;;;;;;4993082;28;20191;-63
2023/05/07 06:41:21;;;;;;;5.77;2.40;;;13.10;59.60;;;;;;4997594;28;20221;-63
2023/05/07 06:43:48;;;;;;;3.70;2.47;;;13.20;59.80;;;;;;4995182;28;20596;-63
2023/05/07 06:46:30;;;;;;;3.93;2.23;;;13.20;59.60;;;;;;4991542;28;20245;-63
2023/05/07 06:48:58;;;;;;;2.37;2.17;;;13.30;59.30;;;;;;4993664;28;20199;-63
2023/05/07 06:51:26;;;;;;;2.77;2.20;;;13.40;60.00;;;;;;4994158;28;20208;-64
2023/05/07 06:53:53;;;;;;;3.73;1.80;;;13.50;59.30;;;;;;4991183;28;20217;-63
2023/05/07 06:56:22;;;;;;;1.60;1.50;;;13.50;59.40;;;;;;5009130;28;20200;-64
2023/05/07 06:58:50;;;;;;;1.23;1.13;;;13.60;59.60;;;;;;5008705;28;20230;-64
2023/05/07 07:01:18;;;;;;;2.20;1.70;;;13.60;59.60;;;;;;5008282;28;20197;-64
2023/05/07 07:03:45;;;;;;;1.83;1.73;;;13.70;59.30;;;;;;4991104;28;20779;-64
2023/05/07 07:06:12;;;;;;;1.63;1.50;;;13.80;59.40;;;;;;4994064;28;20220;-65
2023/05/07 07:08:39;;;;;;;2.27;1.50;;;13.90;59.20;;;;;;4987565;28;20196;-63
2023/05/07 07:11:07;;;;;;;1.00;1.00;;;13.90;59.10;;;;;;4989440;28;20638;-65
2023/05/07 07:13:36;;;;;;;1.33;1.10;;;14.10;59.40;;;;;;4987755;28;20716;-63
2023/05/07 07:16:03;;;;;;;5.53;1.33;;;14.10;59.50;;;;;;4988873;28;20205;-64
2023/05/07 07:18:30;;;;;;;1.20;1.10;;;14.20;59.90;;;;;;4990433;28;20208;-64
2023/05/07 07:20:59;;;;;;;1.60;1.50;;;14.30;60.40;;;;;;4986255;28;20210;-63
2023/05/07 07:23:27;;;;;;;1.37;1.27;;;14.40;60.80;;;;;;4992652;28;20772;-63
2023/05/07 07:25:54;;;;;;;1.20;1.10;;;14.50;60.90;;;;;;4990585;28;20203;-63
2023/05/07 07:28:22;;;;;;;5.10;1.57;;;14.60;61.10;;;;;;4985897;28;20221;-65
2023/05/07 07:30:51;;;;;;;1.27;0.90;;;14.60;61.60;;;;;;4991035;28;20677;-63
2023/05/07 07:33:18;;;;;;;1.17;1.07;;;14.70;62.10;;;;;;4988440;28;20689;-64
2023/05/07 07:35:46;;;;;;;0.90;0.90;;;14.80;62.40;;;;;;4987888;28;20955;-65
2023/05/07 07:38:13;;;;;;;1.07;1.07;;;14.90;62.80;;;;;;4992815;28;20357;-64
2023/05/07 07:40:40;;;;;;;1.27;1.17;;;15.00;63.20;;;;;;4985793;28;20198;-64
2023/05/07 07:43:09;;;;;;;4.23;0.90;;;15.00;63.50;;;;;;5004088;28;20226;-64
2023/05/07 07:45:36;;;;;;;1.13;1.03;;;15.00;63.60;;;;;;4994909;28;20220;-64
2023/05/07 07:48:05;;;;;;;1.10;0.93;;;15.20;64.00;;;;;;4989839;28;20297;-64
2023/05/07 07:50:37;;;;;;;0.90;0.90;;;15.20;64.20;;;;;;4984478;28;20194;-64
2023/05/07 07:53:04;;;;;;;1.00;1.00;;;15.20;65.00;;;;;;4997919;28;20198;-64
2023/05/07 07:55:32;;;;;;;0.90;0.90;;;15.30;64.40;;;;;;5007894;28;20224;-64
2023/05/07 07:58:01;;;;;;;1.23;1.13;;;15.30;64.30;;;;;;5007724;28;20206;-64
2023/05/07 08:00:28;;;;;;;1.30;1.20;;;15.30;64.20;;;;;;4992749;28;20215;-63
2023/05/07 08:02:57;;;;;;;1.30;1.20;;;15.40;64.30;;;;;;4992145;28;20223;-64
2023/05/07 08:05:30;;;;;;;1.80;1.47;;;15.40;64.10;;;;;;4987303;28;20559;-64
2023/05/07 08:07:58;;;;;;;2.30;1.00;;;15.40;64.00;;;;;;4992207;28;20305;-64
2023/05/07 08:10:33;;;;;;;0.93;0.93;;;15.60;64.00;;;;;;4990851;28;20198;-64
2023/05/07 08:13:05;;;;;;;0.80;0.80;;;15.70;63.80;;;;;;4993709;28;20264;-64
2023/05/07 08:15:34;;;;;;;0.73;0.70;;;15.80;63.50;;;;;;4991910;28;20221;-64
2023/05/07 08:18:02;;;;;;;0.73;0.73;;;15.90;63.30;;;;;;4986894;28;20211;-64
2023/05/07 08:20:31;;;;;;;0.70;0.70;;;16.00;63.10;;;;;;4989894;28;20520;-65
2023/05/07 08:22:58;;;;;;;0.70;0.70;;;16.10;62.80;;;;;;4989536;28;20823;-64
2023/05/07 08:25:27;;;;;;;0.80;0.80;;;16.20;62.50;;;;;;4990798;28;20253;-63
2023/05/07 08:27:55;;;;;;;0.63;0.63;;;16.30;62.10;;;;;;4993366;28;20203;-64
2023/05/07 08:30:22;;;;;;;2.10;0.90;;;16.40;61.80;;;;;;4990081;28;20689;-65
2023/05/07 08:32:49;;;;;;;1.20;1.00;;;16.40;61.20;;;;;;4989188;28;20199;-64
2023/05/07 08:35:17;;;;;;;0.90;0.90;;;16.50;61.10;;;;;;4990823;28;22153;-64
2023/05/07 08:37:46;;;;;;;1.67;0.90;;;16.60;60.60;;;;;;4991196;28;20700;-64
2023/05/07 08:40:13;;;;;;;0.73;0.73;;;16.70;60.30;;;;;;4990214;28;20278;-65
2023/05/07 08:42:42;;;;;;;1.60;0.70;;;16.70;60.00;;;;;;5005224;28;20214;-64
2023/05/07 08:45:11;;;;;;;0.87;0.87;;;16.80;60.00;;;;;;4992181;28;20663;-65
2023/05/07 08:47:45;;;;;;;0.83;0.83;;;16.80;60.00;;;;;;4991515;28;21234;-64
2023/05/07 08:50:13;;;;;;;0.93;0.93;;;16.90;60.20;;;;;;4991597;28;20199;-65
2023/05/07 08:52:41;;;;;;;1.00;1.00;;;17.00;60.00;;;;;;4997187;28;20826;-64
2023/05/07 08:55:11;;;;;;;0.80;0.80;;;17.00;59.90;;;;;;4990067;28;20208;-65
2023/05/07 08:57:38;;;;;;;1.10;1.00;;;17.10;59.80;;;;;;4991348;28;20619;-64
2023/05/07 09:00:06;;;;;;;1.13;1.03;;;17.20;59.60;;;;;;4994134;28;20203;-64
2023/05/07 09:02:36;;;;;;;1.47;1.10;;;17.20;59.00;;;;;;4992510;28;20307;-63
2023/05/07 09:05:04;;;;;;;0.90;0.90;;;17.20;58.60;;;;;;4990667;28;20326;-63
2023/05/07 09:07:32;;;;;;;0.97;0.97;;;17.20;58.40;;;;;;4993879;28;20397;-63
2023/05/07 09:10:01;;;;;;;0.77;0.77;;;17.20;58.40;;;;;;4997016;28;20291;-63
2023/05/07 09:12:30;;;;;;;1.33;0.80;;;17.30;58.60;;;;;;5006523;28;20196;-63
2023/05/07 09:15:02;;;;;;;0.90;0.90;;;17.30;58.60;;;;;;4995470;28;20215;-63
2023/05/07 09:17:29;;;;;;;0.70;0.70;;;17.40;58.70;;;;;;4990376;28;20184;-65
2023/05/07 09:19:56;;;;;;;0.80;0.80;;;17.40;59.30;;;;;;4994457;28;20354;-63
2023/05/07 09:22:25;;;;;;;0.70;0.70;;;17.50;58.90;;;;;;4994703;28;20479;-63
2023/05/07 09:25:00;;;;;;;0.60;0.60;;;17.60;58.70;;;;;;4989661;28;20209;-64
2023/05/07 09:27:31;;;;;;;0.90;0.90;;;17.70;58.30;;;;;;4992796;28;20217;-64
2023/05/07 09:29:59;;;;;;;0.80;0.80;;;17.70;58.00;;;;;;4988821;28;20294;-64
2023/05/07 09:32:27;;;;;;;0.60;0.60;;;17.70;58.00;;;;;;4988925;28;20195;-63
2023/05/07 09:34:55;;;;;;;1.23;0.90;;;17.70;58.10;;;;;;4992059;28;20212;-65
2023/05/07 09:37:27;;;;;;;0.67;0.60;;;17.80;58.10;;;;;;4995553;28;21056;-63
2023/05/07 09:39:56;;;;;;;0.80;0.80;;;17.80;58.00;;;;;;5006933;28;20207;-63
2023/05/07 09:42:26;;;;;;;0.77;0.70;;;17.90;57.70;;;;;;4989031;28;20353;-63
2023/05/07 09:44:57;;;;;;;0.77;0.70;;;17.90;57.70;;;;;;4996371;28;20711;-63
2023/05/07 09:47:36;;;;;;;0.90;0.90;;;18.00;57.50;;;;;;4995470;28;20201;-63
2023/05/07 09:50:10;;;;;;;2.30;1.10;;;18.10;57.00;;;;;;4987370;28;20312;-64
2023/05/07 09:52:39;;;;;;;0.80;0.80;;;18.10;55.00;;;;;;4990413;28;20213;-64
2023/05/07 09:55:10;;;;;;;0.80;0.80;;;18.10;54.80;;;;;;4995312;28;20206;-64
2023/05/07 09:57:39;;;;;;;1.00;1.00;;;18.20;54.70;;;;;;5003407;28;20608;-64
2023/05/07 10:00:13;;;;;;;1.10;1.00;;;18.20;54.40;;;;;;4993087;28;20538;-64
2023/05/07 10:02:51;;;;;;;1.67;0.80;;;18.30;54.40;;;;;;4989249;28;20223;-63
2023/05/07 10:05:23;;;;;;;0.85;0.85;;;18.30;54.30;;;;;;4990441;28;20241;-65
2023/05/07 10:07:52;;;;;;;0.70;0.70;;;18.40;54.30;;;;;;4987458;28;20205;-64
2023/05/07 10:10:22;;;;;;;1.43;0.97;;;18.50;54.30;;;;;;4995590;28;20281;-64
2023/05/07 10:12:50;;;;;;;0.90;0.90;;;18.50;54.20;;;;;;4990825;28;20260;-64
2023/05/07 10:15:28;;;;;;;0.80;0.80;;;18.60;54.40;;;;;;4992812;28;20196;-65
2023/05/07 10:17:57;;;;;;;1.23;1.00;;;18.70;54.30;;;;;;5003236;28;20224;-64
2023/05/07 10:20:26;;;;;;;0.70;0.70;;;18.70;54.10;;;;;;4992326;28;20939;-64
2023/05/07 10:22:58;;;;;;;1.25;1.20;;;18.80;54.00;;;;;;4994272;28;20230;-66
2023/05/07 10:25:33;;;;;;;1.30;1.20;;;18.90;54.00;;;;;;4991990;28;20213;-64
2023/05/07 10:28:12;;;;;;;0.80;0.80;;;18.90;53.20;;;;;;5003606;28;20207;-64
2023/05/07 10:30:56;;;;;;;0.97;0.97;;;18.90;52.50;;;;;;4987498;28;20207;-64
2023/05/07 10:33:28;;;;;;;1.88;1.10;;;18.90;52.70;;;;;;4988375;28;20250;-63
2023/05/07 10:36:00;;;;;;;1.20;1.00;;;18.90;51.40;;;;;;4994418;28;20216;-65
2023/05/07 10:38:28;;;;;;;1.23;1.17;;;18.90;51.20;;;;;;4994679;28;20258;-64
2023/05/07 10:40:56;;;;;;;1.13;1.02;;;19.00;50.20;;;;;;4987798;28;20207;-64
2023/05/07 10:43:23;;;;;;;1.65;1.40;;;19.00;50.00;;;;;;4994686;28;20226;-65
2023/05/07 10:46:15;;;;;;;3.28;1.60;;;19.10;48.70;;;;;;5004840;28;20231;-65
2023/05/07 10:49:16;;;;;;;2.60;1.80;;;19.10;47.80;;;;;;4991497;28;20207;-64
2023/05/07 10:52:16;;;;;;;1.50;1.40;;;19.10;47.10;;;;;;4993858;28;20729;-65
2023/05/07 10:55:21;;;;;;;1.45;1.40;;;19.10;47.60;;;;;;5004435;28;20213;-63
2023/05/07 10:58:25;;;;;;;1.23;1.17;;;19.20;47.20;;;;;;5003529;28;20695;-65
2023/05/07 11:00:58;;;;;;;3.15;1.63;;;19.20;47.10;;;;;;4993737;28;20608;-66
2023/05/07 11:03:32;;;;;;;1.08;1.08;;;19.10;47.00;;;;;;4991202;28;20647;-65
2023/05/07 11:06:12;;;;;;;1.10;1.10;;;19.10;47.30;;;;;;4993843;28;20746;-65
2023/05/07 11:08:59;;;;;;;2.88;1.20;;;19.10;47.30;;;;;;5009074;28;20210;-63
2023/05/07 11:11:47;;;;;;;1.42;1.20;;;19.10;47.20;;;;;;4994265;28;20662;-64
2023/05/07 11:14:46;;;;;;;1.30;1.20;;;19.10;46.90;;;;;;4991480;28;21266;-64
2023/05/07 11:17:25;;;;;;;1.00;1.00;;;19.10;47.30;;;;;;4995585;28;20297;-64
2023/05/07 11:20:04;;;;;;;1.50;1.40;;;19.10;47.60;;;;;;4989007;28;20277;-64
2023/05/07 11:22:45;;;;;;;1.77;1.15;;;19.20;47.80;;;;;;4993481;28;20198;-64
2023/05/07 11:25:35;;;;;;;1.50;1.40;;;19.30;48.10;;;;;;5002266;28;20202;-63
2023/05/07 11:28:16;;;;;;;1.15;1.05;;;19.10;47.80;;;;;;4990389;28;20214;-64
2023/05/07 11:30:59;;;;;;;1.75;1.30;;;19.10;47.80;;;;;;5006928;28;20195;-64
2023/05/07 11:33:27;;;;;;;1.55;1.45;;;19.10;47.60;;;;;;4995259;28;20253;-64
2023/05/07 11:35:58;;;;;;;1.40;1.30;;;19.10;47.30;;;;;;4995134;28;20967;-64
2023/05/07 11:38:35;;;;;;;1.48;1.38;;;19.20;47.40;;;;;;4997239;28;20295;-64
2023/05/07 11:41:04;;;;;;;1.60;1.38;;;19.20;47.20;;;;;;4996879;28;20290;-64
2023/05/07 11:43:32;;;;;;;1.08;1.08;;;19.30;46.90;;;;;;5007025;28;20284;-65
2023/05/07 11:46:07;;;;;;;1.52;1.42;;;19.30;46.90;;;;;;5008461;28;20203;-65
2023/05/07 11:48:35;;;;;;;3.78;1.70;;;19.40;47.20;;;;;;5005691;28;20624;-65
2023/05/07 11:51:05;;;;;;;2.17;1.30;;;19.30;45.50;;;;;;5007869;28;20702;-64
2023/05/07 11:53:37;;;;;;;2.15;1.67;;;19.20;46.10;;;;;;5006625;28;20199;-65
2023/05/07 11:56:08;;;;;;;1.88;1.75;;;19.20;45.90;;;;;;5009570;28;20194;-64
2023/05/07 11:58:36;;;;;;;1.80;1.70;;;19.20;45.40;;;;;;5009832;28;20186;-65
2023/05/07 12:01:03;;;;;;;2.65;1.48;;;19.20;45.50;;;;;;5009344;28;20199;-64
2023/05/07 12:03:30;;;;;;;2.95;1.30;;;19.20;45.60;;;;;;5004976;28;20214;-65
2023/05/07 12:05:57;;;;;;;2.78;1.88;;;19.10;45.50;;;;;;5008877;28;20191;-65
2023/05/07 12:08:26;;;;;;;1.63;1.52;;;19.20;45.70;;;;;;5006212;28;20756;-66
2023/05/07 12:10:53;;;;;;;2.10;1.77;;;19.30;45.30;;;;;;5008836;28;20206;-66
2023/05/07 12:13:21;;;;;;;5.07;1.98;;;19.10;44.80;;;;;;5009561;28;20543;-65
2023/05/07 12:15:51;;;;;;;2.83;2.03;;;19.20;45.00;;;;;;5007408;28;20203;-65
2023/05/07 12:18:19;;;;;;;2.20;1.80;;;19.20;44.00;;;;;;5009023;28;20199;-65
2023/05/07 12:20:47;;;;;;;2.25;1.80;;;19.10;44.20;;;;;;5006126;28;20651;-64
2023/05/07 12:23:15;;;;;;;2.75;1.90;;;19.10;44.50;;;;;;5008351;28;20218;-65
2023/05/07 12:25:46;;;;;;;4.35;1.90;;;19.10;45.00;;;;;;5006788;28;21150;-65
2023/05/07 12:28:15;;;;;;;1.80;1.70;;;19.00;44.80;;;;;;5008696;28;20627;-65
2023/05/07 12:30:43;;;;;;;1.50;1.40;;;19.10;45.30;;;;;;5010053;28;20206;-65
2023/05/07 12:33:11;;;;;;;1.50;1.40;;;19.20;46.40;;;;;;5009608;28;20463;-66
2023/05/07 12:35:40;;;;;;;3.85;1.70;;;19.30;46.10;;;;;;5006026;28;20837;-66
2023/05/07 12:38:10;;;;;;;1.60;1.50;;;19.40;46.50;;;;;;5008530;28;20191;-66
2023/05/07 12:40:38;;;;;;;1.60;1.50;;;19.40;46.70;;;;;;5007269;28;20800;-65
2023/05/07 12:43:07;;;;;;;1.60;1.50;;;19.40;46.90;;;;;;4993115;28;20214;-66
2023/05/07 12:45:38;;;;;;;1.58;1.35;;;19.40;47.20;;;;;;5007993;28;20721;-64
2023/05/07 12:48:06;;;;;;;2.78;1.95;;;19.40;47.60;;;;;;5005629;28;20571;-67
2023/05/07 12:50:34;;;;;;;2.17;1.98;;;19.40;47.50;;;;;;4994390;28;20213;-65
2023/05/07 12:53:05;;;;;;;2.72;1.60;;;19.40;47.60;;;;;;5007025;28;20199;-65
2023/05/07 12:55:33;;;;;;;1.50;1.40;;;19.40;47.60;;;;;;4995701;28;20566;-65
2023/05/07 12:58:02;;;;;;;1.52;1.42;;;19.40;47.70;;;;;;5006429;28;20845;-66
2023/05/07 13:00:38;;;;;;;2.30;1.60;;;19.50;47.80;;;;;;5007404;28;20578;-66
2023/05/07 13:03:06;;;;;;;1.48;1.38;;;19.50;47.80;;;;;;5008616;28;20252;-66